createdAt,value
2022-09-13T00:00:16.686Z,99.99
2022-09-13T00:01:06.777Z,99.99
2022-09-13T00:01:56.675Z,99.99
2022-09-13T00:02:46.647Z,99.99
2022-09-13T00:03:36.649Z,99.99
2022-09-13T00:04:26.638Z,99.99
2022-09-13T00:05:16.632Z,99.99
2022-09-13T00:06:06.625Z,99.99
2022-09-13T00:06:56.635Z,99.99
2022-09-13T00:07:46.596Z,99.99
2022-09-13T00:08:36.660Z,99.99
2022-09-13T00:09:26.576Z,99.99
2022-09-13T00:10:16.582Z,99.99
2022-09-13T00:11:06.556Z,99.99
2022-09-13T00:11:56.552Z,99.99
2022-09-13T00:12:46.573Z,99.99
2022-09-13T00:13:36.535Z,99.99
2022-09-13T00:14:26.525Z,99.99
2022-09-13T00:15:16.526Z,99.99
2022-09-13T00:16:06.525Z,99.99
2022-09-13T00:16:56.519Z,99.99
2022-09-13T00:17:46.487Z,99.99
2022-09-13T00:18:36.749Z,99.99
2022-09-13T00:19:26.464Z,99.99
2022-09-13T00:20:16.463Z,99.99
2022-09-13T00:21:06.465Z,99.99
2022-09-13T00:21:56.443Z,99.99
2022-09-13T00:22:46.424Z,99.99
2022-09-13T00:23:36.445Z,99.99
2022-09-13T00:24:26.412Z,99.99
2022-09-13T00:25:16.403Z,99.99
2022-09-13T00:26:06.456Z,99.99
2022-09-13T00:26:56.394Z,99.99
2022-09-13T00:27:46.374Z,99.99
2022-09-13T00:28:36.442Z,99.99
2022-09-13T00:29:26.360Z,99.99
2022-09-13T00:30:16.357Z,99.99
2022-09-13T00:31:06.342Z,99.99
2022-09-13T00:31:56.406Z,99.99
2022-09-13T00:32:46.320Z,99.99
2022-09-13T00:33:36.312Z,99.99
2022-09-13T00:34:26.323Z,99.99
2022-09-13T00:35:16.296Z,99.99
2022-09-13T00:36:06.276Z,99.99
2022-09-13T00:36:56.273Z,99.99
2022-09-13T00:37:46.288Z,99.99
2022-09-13T00:38:36.281Z,99.99
2022-09-13T00:39:26.245Z,99.99
2022-09-13T00:40:16.309Z,99.99
2022-09-13T00:41:06.228Z,99.99
2022-09-13T00:41:56.219Z,99.99
2022-09-13T00:42:46.216Z,99.99
2022-09-13T00:43:36.201Z,99.99
2022-09-13T00:44:26.183Z,99.99
2022-09-13T00:45:16.191Z,99.99
2022-09-13T00:46:06.278Z,99.99
2022-09-13T00:46:56.161Z,99.99
2022-09-13T00:47:46.161Z,99.99
2022-09-13T00:48:36.144Z,99.99
2022-09-13T00:49:26.158Z,99.99
2022-09-13T00:50:16.123Z,99.99
2022-09-13T00:51:06.111Z,99.99
2022-09-13T00:51:56.114Z,99.99
2022-09-13T00:52:46.830Z,99.99
2022-09-13T00:53:36.084Z,99.99
2022-09-13T00:54:26.072Z,99.99
2022-09-13T00:55:16.100Z,99.99
2022-09-13T00:56:06.066Z,99.99
2022-09-13T00:56:56.047Z,99.99
2022-09-13T00:57:46.039Z,99.99
2022-09-13T00:58:36.029Z,99.99
2022-09-13T00:59:26.014Z,99.99
2022-09-13T01:00:16.010Z,99.99
2022-09-13T01:01:08.000Z,99.99
2022-09-13T01:01:56.227Z,99.99
2022-09-13T01:02:45.981Z,99.99
2022-09-13T01:03:35.980Z,99.99
2022-09-13T01:04:25.960Z,99.99
2022-09-13T01:05:15.960Z,99.99
2022-09-13T01:06:05.945Z,99.99
2022-09-13T01:06:55.959Z,99.99
2022-09-13T01:07:45.941Z,99.99
2022-09-13T01:08:35.929Z,99.99
2022-09-13T01:09:25.938Z,99.99
2022-09-13T01:10:15.899Z,99.99
2022-09-13T01:11:05.912Z,99.99
2022-09-13T01:11:55.890Z,99.99
2022-09-13T01:12:45.869Z,99.99
2022-09-13T01:13:35.859Z,99.99
2022-09-13T01:14:25.977Z,99.99
2022-09-13T01:15:15.869Z,99.99
2022-09-13T01:16:05.869Z,99.99
2022-09-13T01:16:55.847Z,99.99
2022-09-13T01:17:45.807Z,99.99
2022-09-13T01:18:35.814Z,99.99
2022-09-13T01:19:25.801Z,99.99
2022-09-13T01:20:15.789Z,99.99
2022-09-13T01:21:05.802Z,99.99
2022-09-13T01:21:55.768Z,99.99
2022-09-13T01:22:45.759Z,99.99
2022-09-13T01:23:35.756Z,99.99
2022-09-13T01:24:25.737Z,99.99
2022-09-13T01:25:15.745Z,99.99
2022-09-13T01:26:05.718Z,99.99
2022-09-13T01:26:55.741Z,99.99
2022-09-13T01:27:45.697Z,99.99
2022-09-13T01:28:35.699Z,99.99
2022-09-13T01:29:25.687Z,99.99
2022-09-13T01:30:15.670Z,99.99
2022-09-13T01:31:05.668Z,99.99
2022-09-13T01:31:55.704Z,99.99
2022-09-13T01:32:45.677Z,99.99
2022-09-13T01:33:35.642Z,99.99
2022-09-13T01:34:25.628Z,99.99
2022-09-13T01:35:15.616Z,99.99
2022-09-13T01:36:05.635Z,99.99
2022-09-13T01:36:55.599Z,99.99
2022-09-13T01:37:45.587Z,99.99
2022-09-13T01:38:36.755Z,99.99
2022-09-13T01:39:25.576Z,99.99
2022-09-13T01:40:15.591Z,99.99
2022-09-13T01:41:05.556Z,99.99
2022-09-13T01:41:55.569Z,99.99
2022-09-13T01:42:45.565Z,99.99
2022-09-13T01:43:35.555Z,99.99
2022-09-13T01:44:25.515Z,99.99
2022-09-13T01:45:15.505Z,99.99
2022-09-13T01:46:05.567Z,99.99
2022-09-13T01:46:55.477Z,99.99
2022-09-13T01:47:45.476Z,99.99
2022-09-13T01:48:36.619Z,99.99
2022-09-13T01:49:25.465Z,99.99
2022-09-13T01:50:15.454Z,99.99
2022-09-13T01:51:05.461Z,99.99
2022-09-13T01:51:55.424Z,99.99
2022-09-13T01:52:45.426Z,99.99
2022-09-13T01:53:35.416Z,99.99
2022-09-13T01:54:25.433Z,99.99
2022-09-13T01:55:15.415Z,99.99
2022-09-13T01:56:05.384Z,99.99
2022-09-13T01:56:55.364Z,99.99
2022-09-13T01:57:45.364Z,99.99
2022-09-13T01:58:35.357Z,99.99
2022-09-13T01:59:25.354Z,99.99
2022-09-13T02:00:15.353Z,99.99
2022-09-13T02:01:05.364Z,99.99
2022-09-13T02:01:55.343Z,99.99
2022-09-13T02:02:45.336Z,99.99
2022-09-13T02:03:35.297Z,99.99
2022-09-13T02:04:25.293Z,99.99
2022-09-13T02:05:15.279Z,99.99
2022-09-13T02:06:05.485Z,99.99
2022-09-13T02:06:55.266Z,99.99
2022-09-13T02:07:45.253Z,99.99
2022-09-13T02:08:35.241Z,99.99
2022-09-13T02:09:25.232Z,99.99
2022-09-13T02:10:15.222Z,99.99
2022-09-13T02:11:05.229Z,99.99
2022-09-13T02:11:55.234Z,99.99
2022-09-13T02:12:45.200Z,99.99
2022-09-13T02:13:35.181Z,99.99
2022-09-13T02:14:25.182Z,99.99
2022-09-13T02:15:15.162Z,99.99
2022-09-13T02:16:05.194Z,99.99
2022-09-13T02:16:55.163Z,99.99
2022-09-13T02:17:45.160Z,99.99
2022-09-13T02:18:35.131Z,99.99
2022-09-13T02:19:25.160Z,99.99
2022-09-13T02:20:15.116Z,99.99
2022-09-13T02:21:05.100Z,99.99
2022-09-13T02:21:55.090Z,99.99
2022-09-13T02:22:45.083Z,99.99
2022-09-13T02:23:35.071Z,99.99
2022-09-13T02:24:25.084Z,99.99
2022-09-13T02:25:15.071Z,99.99
2022-09-13T02:26:05.050Z,99.99
2022-09-13T02:26:55.033Z,99.99
2022-09-13T02:27:45.030Z,99.99
2022-09-13T02:28:35.010Z,99.99
2022-09-13T02:29:25.025Z,99.99
2022-09-13T02:30:15.000Z,99.99
2022-09-13T02:31:05.892Z,99.99
2022-09-13T02:31:55.022Z,99.99
2022-09-13T02:32:44.982Z,99.99
2022-09-13T02:33:34.959Z,99.99
2022-09-13T02:34:24.969Z,99.99
2022-09-13T02:35:14.956Z,99.99
2022-09-13T02:36:04.930Z,99.99
2022-09-13T02:36:54.949Z,99.99
2022-09-13T02:37:44.910Z,99.99
2022-09-13T02:38:34.911Z,99.99
2022-09-13T02:39:24.909Z,99.99
2022-09-13T02:40:14.966Z,99.99
2022-09-13T02:41:04.879Z,99.99
2022-09-13T02:41:54.876Z,99.99
2022-09-13T02:42:44.885Z,99.99
2022-09-13T02:43:34.858Z,99.99
2022-09-13T02:44:24.848Z,99.99
2022-09-13T02:45:14.830Z,99.99
2022-09-13T02:46:04.834Z,99.99
2022-09-13T02:46:54.818Z,99.99
2022-09-13T02:47:44.807Z,99.99
2022-09-13T02:48:37.369Z,99.99
2022-09-13T02:49:24.784Z,99.99
2022-09-13T02:50:14.781Z,99.99
2022-09-13T02:51:04.767Z,99.99
2022-09-13T02:51:54.764Z,99.99
2022-09-13T02:52:44.754Z,99.99
2022-09-13T02:53:34.738Z,99.99
2022-09-13T02:54:24.807Z,99.99
2022-09-13T02:55:14.717Z,99.99
2022-09-13T02:56:04.720Z,99.99
2022-09-13T02:56:54.720Z,99.99
2022-09-13T02:57:44.689Z,99.99
2022-09-13T02:58:34.684Z,99.99
2022-09-13T02:59:24.677Z,99.99
2022-09-13T03:00:14.688Z,99.99
2022-09-13T03:01:04.703Z,99.99
2022-09-13T03:01:54.688Z,99.99
2022-09-13T03:02:44.636Z,99.99
2022-09-13T03:03:34.640Z,99.99
2022-09-13T03:04:24.616Z,99.99
2022-09-13T03:05:14.615Z,99.99
2022-09-13T03:06:04.623Z,99.99
2022-09-13T03:06:54.586Z,99.99
2022-09-13T03:07:44.580Z,99.99
2022-09-13T03:08:34.565Z,99.99
2022-09-13T03:09:24.574Z,99.99
2022-09-13T03:10:14.554Z,99.99
2022-09-13T03:11:05.846Z,99.99
2022-09-13T03:11:54.525Z,99.99
2022-09-13T03:12:44.545Z,99.99
2022-09-13T03:13:34.513Z,99.99
2022-09-13T03:14:24.505Z,99.99
2022-09-13T03:15:14.495Z,99.99
2022-09-13T03:16:04.521Z,99.99
2022-09-13T03:16:54.501Z,99.99
2022-09-13T03:17:44.468Z,99.99
2022-09-13T03:18:34.497Z,99.99
2022-09-13T03:19:24.454Z,99.99
2022-09-13T03:20:14.434Z,99.99
2022-09-13T03:21:04.434Z,99.99
2022-09-13T03:21:54.421Z,99.99
2022-09-13T03:22:44.417Z,99.99
2022-09-13T03:23:34.442Z,99.99
2022-09-13T03:24:24.426Z,99.99
2022-09-13T03:25:14.383Z,99.99
2022-09-13T03:26:04.374Z,99.99
2022-09-13T03:26:54.364Z,99.99
2022-09-13T03:27:44.360Z,99.99
2022-09-13T03:28:34.353Z,99.99
2022-09-13T03:29:24.342Z,99.99
2022-09-13T03:30:14.345Z,99.99
2022-09-13T03:31:04.320Z,99.99
2022-09-13T03:31:54.318Z,99.99
2022-09-13T03:32:44.303Z,99.99
2022-09-13T03:33:34.299Z,99.99
2022-09-13T03:34:24.285Z,99.99
2022-09-13T03:35:14.272Z,99.99
2022-09-13T03:36:04.361Z,99.99
2022-09-13T03:36:54.250Z,99.99
2022-09-13T03:37:44.245Z,99.99
2022-09-13T03:38:34.231Z,99.99
2022-09-13T03:39:24.235Z,99.99
2022-09-13T03:40:14.372Z,99.99
2022-09-13T03:41:04.211Z,99.99
2022-09-13T03:41:54.214Z,99.99
2022-09-13T03:42:44.184Z,99.99
2022-09-13T03:43:34.171Z,99.99
2022-09-13T03:44:24.170Z,99.99
2022-09-13T03:45:14.176Z,99.99
2022-09-13T03:46:04.191Z,99.99
2022-09-13T03:46:54.141Z,99.99
2022-09-13T03:47:44.140Z,99.99
2022-09-13T03:48:34.121Z,99.99
2022-09-13T03:49:24.114Z,99.99
2022-09-13T03:50:14.100Z,99.99
2022-09-13T03:51:04.299Z,99.99
2022-09-13T03:51:54.082Z,99.99
2022-09-13T03:52:46.508Z,99.99
2022-09-13T03:53:34.060Z,99.99
2022-09-13T03:54:24.076Z,99.99
2022-09-13T03:55:14.040Z,99.99
2022-09-13T03:56:04.031Z,99.99
2022-09-13T03:56:54.060Z,99.99
2022-09-13T03:57:44.020Z,99.99
2022-09-13T03:58:34.029Z,99.99
2022-09-13T03:59:23.999Z,99.99
2022-09-13T04:00:13.990Z,99.99
2022-09-13T04:01:03.995Z,99.99
2022-09-13T04:01:54.039Z,99.99
2022-09-13T04:02:44.000Z,99.99
2022-09-13T04:03:33.967Z,99.99
2022-09-13T04:04:23.940Z,99.99
2022-09-13T04:05:13.938Z,99.99
2022-09-13T04:06:03.920Z,99.99
2022-09-13T04:06:53.917Z,99.99
2022-09-13T04:07:43.899Z,99.99
2022-09-13T04:08:33.938Z,99.99
2022-09-13T04:09:23.888Z,99.99
2022-09-13T04:10:14.121Z,99.99
2022-09-13T04:11:03.868Z,99.99
2022-09-13T04:11:53.868Z,99.99
2022-09-13T04:12:43.848Z,99.99
2022-09-13T04:13:33.846Z,99.99
2022-09-13T04:14:23.869Z,99.99
2022-09-13T04:15:13.858Z,99.99
2022-09-13T04:16:03.863Z,99.99
2022-09-13T04:16:53.807Z,99.99
2022-09-13T04:17:43.788Z,99.99
2022-09-13T04:18:33.788Z,99.99
2022-09-13T04:19:23.775Z,99.99
2022-09-13T04:20:13.805Z,99.99
2022-09-13T04:21:03.769Z,99.99
2022-09-13T04:21:53.748Z,99.99
2022-09-13T04:22:43.739Z,99.99
2022-09-13T04:23:33.728Z,99.99
2022-09-13T04:24:23.717Z,99.99
2022-09-13T04:25:13.754Z,99.99
2022-09-13T04:26:03.699Z,99.99
2022-09-13T04:26:53.697Z,99.99
2022-09-13T04:27:43.677Z,99.99
2022-09-13T04:28:33.714Z,99.99
2022-09-13T04:29:23.658Z,99.99
2022-09-13T04:30:13.666Z,99.99
2022-09-13T04:31:03.662Z,99.99
2022-09-13T04:31:53.674Z,99.99
2022-09-13T04:32:43.626Z,99.99
2022-09-13T04:33:33.617Z,99.99
2022-09-13T04:34:23.661Z,99.99
2022-09-13T04:35:13.606Z,99.99
2022-09-13T04:36:03.585Z,99.99
2022-09-13T04:36:53.595Z,99.99
2022-09-13T04:37:43.566Z,99.99
2022-09-13T04:38:33.562Z,99.99
2022-09-13T04:39:23.544Z,99.99
2022-09-13T04:40:13.632Z,99.99
2022-09-13T04:41:03.532Z,99.99
2022-09-13T04:41:53.532Z,99.99
2022-09-13T04:42:43.506Z,99.99
2022-09-13T04:43:33.514Z,99.99
2022-09-13T04:44:23.589Z,99.99
2022-09-13T04:45:13.484Z,99.99
2022-09-13T04:46:03.547Z,99.99
2022-09-13T04:46:53.473Z,99.99
2022-09-13T04:47:43.454Z,99.99
2022-09-13T04:48:33.455Z,99.99
2022-09-13T04:49:23.434Z,99.99
2022-09-13T04:50:13.442Z,99.99
2022-09-13T04:51:03.423Z,99.99
2022-09-13T04:51:53.432Z,99.99
2022-09-13T04:52:43.407Z,99.99
2022-09-13T04:53:33.396Z,99.99
2022-09-13T04:54:23.383Z,99.99
2022-09-13T04:55:13.374Z,99.99
2022-09-13T04:56:03.362Z,99.99
2022-09-13T04:56:53.380Z,99.99
2022-09-13T04:57:43.342Z,99.99
2022-09-13T04:58:33.341Z,99.99
2022-09-13T04:59:23.322Z,99.99
2022-09-13T05:00:13.320Z,99.99
2022-09-13T05:01:03.337Z,99.99
2022-09-13T05:01:53.327Z,99.99
2022-09-13T05:02:43.997Z,99.99
2022-09-13T05:03:33.281Z,99.99
2022-09-13T05:04:23.261Z,99.99
2022-09-13T05:05:13.261Z,99.99
2022-09-13T05:06:03.252Z,99.99
2022-09-13T05:06:53.243Z,99.99
2022-09-13T05:07:43.240Z,99.99
2022-09-13T05:08:33.274Z,99.99
2022-09-13T05:09:23.211Z,99.99
2022-09-13T05:10:16.388Z,99.99
2022-09-13T05:11:04.191Z,99.99
2022-09-13T05:11:53.192Z,99.99
2022-09-13T05:12:43.171Z,99.99
2022-09-13T05:13:33.171Z,99.99
2022-09-13T05:14:23.402Z,99.99
2022-09-13T05:15:13.151Z,99.99
2022-09-13T05:16:03.200Z,99.99
2022-09-13T05:16:53.130Z,99.99
2022-09-13T05:17:43.123Z,99.99
2022-09-13T05:18:33.120Z,99.99
2022-09-13T05:19:23.100Z,99.99
2022-09-13T05:20:13.147Z,99.99
2022-09-13T05:21:03.090Z,99.99
2022-09-13T05:21:53.076Z,99.99
2022-09-13T05:22:43.061Z,99.99
2022-09-13T05:23:33.062Z,99.99
2022-09-13T05:24:23.045Z,99.99
2022-09-13T05:25:13.049Z,99.99
2022-09-13T05:26:03.040Z,99.99
2022-09-13T05:26:53.020Z,99.99
2022-09-13T05:27:43.000Z,99.99
2022-09-13T05:28:33.029Z,99.99
2022-09-13T05:29:23.005Z,99.99
2022-09-13T05:30:12.985Z,99.99
2022-09-13T05:31:03.005Z,99.99
2022-09-13T05:31:52.959Z,99.99
2022-09-13T05:32:42.958Z,99.99
2022-09-13T05:33:32.937Z,99.99
2022-09-13T05:34:22.962Z,99.99
2022-09-13T05:35:12.935Z,99.99
2022-09-13T05:36:02.908Z,99.99
2022-09-13T05:36:54.492Z,99.99
2022-09-13T05:37:42.897Z,99.99
2022-09-13T05:38:32.888Z,99.99
2022-09-13T05:39:48.392Z,99.99
2022-09-13T05:40:13.942Z,99.99
2022-09-13T05:41:02.862Z,99.99
2022-09-13T05:41:52.849Z,99.99
2022-09-13T05:42:42.838Z,99.99
2022-09-13T05:43:32.827Z,99.99
2022-09-13T05:44:22.817Z,99.99
2022-09-13T05:45:12.807Z,99.99
2022-09-13T05:46:02.915Z,99.99
2022-09-13T05:46:52.799Z,99.99
2022-09-13T05:47:42.786Z,99.99
2022-09-13T05:48:32.775Z,99.99
2022-09-13T05:49:22.766Z,99.99
2022-09-13T05:50:26.556Z,99.99
2022-09-13T05:51:03.955Z,99.99
2022-09-13T05:51:52.757Z,99.99
2022-09-13T05:52:42.727Z,99.99
2022-09-13T05:53:32.769Z,99.99
2022-09-13T05:54:22.708Z,99.99
2022-09-13T05:55:12.695Z,99.99
2022-09-13T05:56:02.696Z,99.99
2022-09-13T05:56:52.708Z,99.99
2022-09-13T05:57:42.667Z,99.99
2022-09-13T05:58:32.666Z,99.99
2022-09-13T05:59:22.675Z,99.99
2022-09-13T06:00:12.646Z,99.99
2022-09-13T06:01:02.637Z,99.99
2022-09-13T06:01:52.676Z,99.99
2022-09-13T06:02:42.652Z,99.99
2022-09-13T06:03:32.604Z,99.99
2022-09-13T06:04:22.825Z,99.99
2022-09-13T06:05:12.623Z,99.99
2022-09-13T06:06:02.576Z,99.99
2022-09-13T06:06:52.570Z,99.99
2022-09-13T06:07:44.013Z,99.99
2022-09-13T06:08:32.553Z,99.99
2022-09-13T06:09:22.542Z,99.99
2022-09-13T06:10:12.557Z,99.99
2022-09-13T06:11:02.518Z,99.99
2022-09-13T06:11:52.513Z,99.99
2022-09-13T06:12:42.502Z,99.99
2022-09-13T06:13:32.703Z,99.99
2022-09-13T06:14:22.482Z,99.99
2022-09-13T06:15:12.490Z,99.99
2022-09-13T06:16:02.543Z,99.99
2022-09-13T06:16:52.460Z,99.99
2022-09-13T06:17:42.448Z,99.99
2022-09-13T06:18:32.441Z,99.99
2022-09-13T06:19:22.422Z,99.99
2022-09-13T06:20:12.423Z,99.99
2022-09-13T06:21:02.413Z,99.99
2022-09-13T06:21:52.424Z,99.99
2022-09-13T06:22:42.382Z,99.99
2022-09-13T06:23:32.381Z,99.99
2022-09-13T06:24:22.371Z,99.99
2022-09-13T06:25:12.381Z,99.99
2022-09-13T06:26:02.373Z,99.99
2022-09-13T06:26:52.341Z,99.99
2022-09-13T06:27:42.349Z,99.99
2022-09-13T06:28:37.160Z,99.99
2022-09-13T06:29:23.311Z,99.99
2022-09-13T06:30:12.324Z,99.99
2022-09-13T06:31:02.387Z,99.99
2022-09-13T06:31:52.291Z,99.99
2022-09-13T06:32:42.270Z,99.99
2022-09-13T06:33:32.270Z,99.99
2022-09-13T06:34:22.462Z,99.99
2022-09-13T06:35:12.250Z,99.99
2022-09-13T06:36:02.284Z,99.99
2022-09-13T06:36:52.229Z,99.99
2022-09-13T06:37:42.231Z,99.99
2022-09-13T06:38:32.220Z,99.99
2022-09-13T06:39:22.277Z,99.99
2022-09-13T06:40:12.540Z,99.99
2022-09-13T06:41:02.189Z,99.99
2022-09-13T06:41:52.239Z,99.99
2022-09-13T06:42:42.160Z,99.99
2022-09-13T06:43:32.158Z,99.99
2022-09-13T06:44:22.151Z,99.99
2022-09-13T06:45:12.164Z,99.99
2022-09-13T06:46:02.195Z,99.99
2022-09-13T06:46:52.126Z,99.99
2022-09-13T06:47:42.108Z,99.99
2022-09-13T06:48:32.099Z,99.99
2022-09-13T06:49:22.095Z,99.99
2022-09-13T06:50:12.088Z,99.99
2022-09-13T06:51:02.068Z,99.99
2022-09-13T06:51:52.116Z,99.99
2022-09-13T06:52:42.048Z,99.99
2022-09-13T06:53:32.048Z,99.99
2022-09-13T06:54:22.048Z,99.99
2022-09-13T06:55:12.855Z,99.99
2022-09-13T06:56:02.019Z,99.99
2022-09-13T06:56:52.008Z,99.99
2022-09-13T06:57:42.223Z,99.99
2022-09-13T06:58:31.997Z,99.99
2022-09-13T06:59:21.979Z,99.99
2022-09-13T07:00:11.977Z,99.99
2022-09-13T07:01:02.012Z,99.99
2022-09-13T07:01:51.977Z,99.99
2022-09-13T07:02:41.937Z,99.99
2022-09-13T07:03:31.962Z,99.99
2022-09-13T07:04:21.932Z,99.99
2022-09-13T07:05:11.976Z,99.99
2022-09-13T07:06:01.896Z,99.99
2022-09-13T07:06:51.894Z,99.99
2022-09-13T07:07:41.876Z,99.99
2022-09-13T07:08:31.876Z,99.99
2022-09-13T07:09:21.884Z,99.99
2022-09-13T07:10:11.860Z,99.99
2022-09-13T07:11:02.046Z,99.99
2022-09-13T07:11:51.857Z,99.99
2022-09-13T07:12:41.830Z,99.99
2022-09-13T07:13:31.825Z,99.99
2022-09-13T07:14:21.825Z,99.99
2022-09-13T07:15:11.806Z,99.99
2022-09-13T07:16:01.827Z,99.99
2022-09-13T07:16:51.853Z,99.99
2022-09-13T07:17:41.765Z,99.99
2022-09-13T07:18:31.767Z,99.99
2022-09-13T07:19:21.752Z,99.99
2022-09-13T07:20:11.786Z,99.99
2022-09-13T07:21:01.737Z,99.99
2022-09-13T07:21:51.726Z,99.99
2022-09-13T07:22:41.754Z,99.99
2022-09-13T07:23:31.704Z,99.99
2022-09-13T07:24:21.705Z,99.99
2022-09-13T07:25:11.703Z,99.99
2022-09-13T07:26:01.675Z,99.99
2022-09-13T07:26:51.674Z,99.99
2022-09-13T07:27:41.654Z,99.99
2022-09-13T07:28:35.235Z,99.99
2022-09-13T07:29:21.655Z,99.99
2022-09-13T07:30:11.634Z,99.99
2022-09-13T07:31:01.654Z,99.99
2022-09-13T07:31:51.614Z,99.99
2022-09-13T07:32:41.603Z,99.99
2022-09-13T07:33:31.594Z,99.99
2022-09-13T07:34:21.795Z,99.99
2022-09-13T07:35:11.624Z,99.99
2022-09-13T07:36:01.573Z,99.99
2022-09-13T07:36:51.554Z,99.99
2022-09-13T07:37:41.560Z,99.99
2022-09-13T07:38:31.526Z,99.99
2022-09-13T07:39:22.925Z,99.99
2022-09-13T07:40:11.670Z,99.99
2022-09-13T07:41:01.510Z,99.99
2022-09-13T07:41:51.505Z,99.99
2022-09-13T07:42:41.513Z,99.99
2022-09-13T07:43:31.473Z,99.99
2022-09-13T07:44:21.484Z,99.99
2022-09-13T07:45:11.454Z,99.99
2022-09-13T07:46:01.595Z,99.99
2022-09-13T07:46:51.444Z,99.99
2022-09-13T07:47:41.444Z,99.99
2022-09-13T07:48:33.622Z,99.99
2022-09-13T07:49:21.416Z,99.99
2022-09-13T07:50:11.417Z,99.99
2022-09-13T07:51:01.412Z,99.99
2022-09-13T07:51:51.651Z,99.99
2022-09-13T07:52:41.372Z,99.99
2022-09-13T07:53:31.359Z,99.99
2022-09-13T07:54:21.585Z,99.99
2022-09-13T07:55:11.342Z,99.99
2022-09-13T07:56:01.332Z,99.99
2022-09-13T07:56:51.330Z,99.99
2022-09-13T07:57:41.315Z,99.99
2022-09-13T07:58:31.339Z,99.99
2022-09-13T07:59:25.855Z,99.99
2022-09-13T08:00:12.288Z,99.58
2022-09-13T08:01:01.320Z,99.08
2022-09-13T08:01:51.448Z,98.63
2022-09-13T08:02:41.310Z,98.22
2022-09-13T08:03:31.252Z,97.71
2022-09-13T08:04:21.242Z,96.80
2022-09-13T08:05:11.252Z,96.25
2022-09-13T08:06:01.222Z,95.84
2022-09-13T08:06:51.212Z,95.59
2022-09-13T08:07:41.202Z,95.50
2022-09-13T08:08:31.202Z,95.19
2022-09-13T08:09:21.191Z,95.29
2022-09-13T08:10:11.170Z,95.19
2022-09-13T08:11:01.201Z,94.94
2022-09-13T08:11:51.158Z,94.94
2022-09-13T08:12:41.151Z,94.64
2022-09-13T08:13:31.132Z,94.54
2022-09-13T08:14:21.131Z,94.74
2022-09-13T08:15:11.141Z,94.43
2022-09-13T08:16:01.152Z,94.09
2022-09-13T08:16:51.097Z,93.78
2022-09-13T08:17:41.090Z,93.68
2022-09-13T08:18:31.089Z,93.48
2022-09-13T08:19:21.070Z,93.88
2022-09-13T08:20:11.070Z,93.88
2022-09-13T08:21:01.102Z,93.99
2022-09-13T08:21:51.041Z,94.19
2022-09-13T08:22:41.032Z,94.35
2022-09-13T08:23:31.020Z,94.35
2022-09-13T08:24:21.026Z,94.45
2022-09-13T08:25:11.001Z,94.24
2022-09-13T08:26:01.008Z,94.04
2022-09-13T08:26:51.012Z,94.04
2022-09-13T08:27:40.980Z,93.74
2022-09-13T08:28:30.969Z,94.45
2022-09-13T08:29:20.970Z,94.65
2022-09-13T08:30:10.946Z,93.94
2022-09-13T08:31:00.991Z,93.70
2022-09-13T08:31:50.931Z,93.79
2022-09-13T08:32:40.951Z,93.79
2022-09-13T08:33:30.939Z,93.49
2022-09-13T08:34:20.910Z,92.79
2022-09-13T08:35:10.889Z,92.58
2022-09-13T08:36:00.897Z,92.13
2022-09-13T08:36:50.880Z,91.63
2022-09-13T08:37:40.870Z,91.22
2022-09-13T08:38:30.960Z,90.62
2022-09-13T08:39:20.861Z,90.67
2022-09-13T08:40:10.865Z,90.67
2022-09-13T08:41:00.850Z,90.27
2022-09-13T08:41:50.819Z,90.27
2022-09-13T08:42:40.821Z,90.27
2022-09-13T08:43:30.800Z,90.23
2022-09-13T08:44:20.844Z,89.72
2022-09-13T08:45:10.786Z,88.87
2022-09-13T08:46:00.820Z,89.17
2022-09-13T08:46:50.769Z,89.17
2022-09-13T08:47:40.804Z,88.73
2022-09-13T08:48:30.760Z,88.63
2022-09-13T08:49:20.755Z,88.53
2022-09-13T08:50:10.959Z,88.73
2022-09-13T08:51:00.729Z,88.73
2022-09-13T08:51:50.761Z,89.03
2022-09-13T08:52:40.709Z,88.28
2022-09-13T08:53:30.748Z,88.89
2022-09-13T08:54:20.732Z,87.43
2022-09-13T08:55:10.680Z,87.19
2022-09-13T08:56:00.700Z,87.60
2022-09-13T08:56:50.666Z,87.60
2022-09-13T08:57:40.669Z,86.95
2022-09-13T08:58:30.671Z,86.75
2022-09-13T08:59:20.648Z,87.15
2022-09-13T09:00:10.628Z,85.70
2022-09-13T09:01:00.685Z,86.00
2022-09-13T09:01:50.676Z,86.00
2022-09-13T09:02:40.616Z,85.66
2022-09-13T09:03:30.588Z,85.16
2022-09-13T09:04:20.588Z,84.85
2022-09-13T09:05:10.588Z,85.31
2022-09-13T09:06:00.579Z,84.81
2022-09-13T09:06:50.568Z,83.71
2022-09-13T09:07:40.588Z,84.01
2022-09-13T09:08:30.549Z,82.86
2022-09-13T09:09:20.540Z,83.26
2022-09-13T09:10:10.534Z,82.97
2022-09-13T09:11:00.528Z,82.02
2022-09-13T09:11:50.519Z,82.72
2022-09-13T09:12:40.515Z,82.32
2022-09-13T09:13:30.541Z,82.48
2022-09-13T09:14:20.551Z,84.39
2022-09-13T09:15:10.513Z,82.58
2022-09-13T09:16:00.499Z,81.64
2022-09-13T09:16:50.449Z,82.24
2022-09-13T09:17:40.474Z,83.41
2022-09-13T09:18:30.440Z,82.70
2022-09-13T09:19:20.656Z,80.66
2022-09-13T09:20:10.439Z,81.06
2022-09-13T09:21:00.409Z,80.96
2022-09-13T09:21:50.407Z,80.86
2022-09-13T09:22:40.405Z,79.96
2022-09-13T09:23:30.378Z,79.72
2022-09-13T09:24:20.384Z,79.32
2022-09-13T09:25:10.577Z,79.72
2022-09-13T09:26:00.359Z,79.02
2022-09-13T09:26:50.354Z,77.58
2022-09-13T09:27:40.348Z,77.48
2022-09-13T09:28:30.329Z,75.63
2022-09-13T09:29:24.704Z,76.24
2022-09-13T09:30:10.338Z,77.30
2022-09-13T09:31:00.388Z,74.90
2022-09-13T09:31:50.291Z,75.06
2022-09-13T09:32:40.286Z,75.06
2022-09-13T09:33:30.269Z,74.06
2022-09-13T09:34:20.271Z,74.73
2022-09-13T09:35:10.259Z,74.53
2022-09-13T09:36:00.459Z,73.83
2022-09-13T09:36:50.236Z,74.22
2022-09-13T09:37:40.228Z,74.09
2022-09-13T09:38:30.468Z,72.49
2022-09-13T09:39:20.208Z,72.39
2022-09-13T09:40:10.316Z,72.09
2022-09-13T09:41:00.188Z,73.09
2022-09-13T09:41:50.178Z,72.39
2022-09-13T09:42:40.186Z,71.46
2022-09-13T09:43:30.173Z,70.86
2022-09-13T09:44:20.208Z,70.23
2022-09-13T09:45:10.139Z,69.62
2022-09-13T09:46:00.223Z,70.42
2022-09-13T09:46:50.126Z,70.83
2022-09-13T09:47:40.112Z,68.89
2022-09-13T09:48:30.107Z,70.69
2022-09-13T09:49:20.098Z,69.26
2022-09-13T09:50:10.287Z,70.46
2022-09-13T09:51:00.074Z,69.86
2022-09-13T09:51:50.071Z,67.96
2022-09-13T09:52:40.056Z,68.96
2022-09-13T09:53:34.875Z,69.86
2022-09-13T09:54:21.105Z,68.33
2022-09-13T09:55:10.023Z,69.53
2022-09-13T09:56:00.060Z,70.03
2022-09-13T09:56:50.018Z,70.69
2022-09-13T09:57:39.999Z,70.79
2022-09-13T09:58:29.988Z,71.69
2022-09-13T09:59:20.204Z,71.29
2022-09-13T10:00:10.248Z,68.49
2022-09-13T10:00:59.996Z,67.90
2022-09-13T10:01:49.997Z,67.20
2022-09-13T10:02:39.976Z,67.20
2022-09-13T10:03:29.926Z,65.61
2022-09-13T10:04:19.918Z,67.07
2022-09-13T10:05:09.926Z,66.47
2022-09-13T10:05:59.919Z,66.67
2022-09-13T10:06:49.891Z,65.47
2022-09-13T10:07:39.884Z,66.34
2022-09-13T10:08:29.883Z,66.14
2022-09-13T10:09:19.857Z,65.34
2022-09-13T10:10:09.838Z,65.81
2022-09-13T10:10:59.852Z,63.62
2022-09-13T10:11:50.052Z,65.01
2022-09-13T10:12:39.812Z,65.31
2022-09-13T10:13:31.907Z,66.20
2022-09-13T10:14:19.798Z,66.01
2022-09-13T10:15:09.791Z,67.30
2022-09-13T10:15:59.781Z,65.31
2022-09-13T10:16:49.836Z,66.01
2022-09-13T10:17:39.977Z,64.12
2022-09-13T10:18:45.728Z,64.98
2022-09-13T10:19:20.737Z,64.88
2022-09-13T10:20:09.737Z,64.85
2022-09-13T10:20:59.737Z,63.16
2022-09-13T10:21:49.701Z,63.36
2022-09-13T10:22:39.688Z,62.46
2022-09-13T10:23:29.701Z,60.97
2022-09-13T10:24:19.686Z,59.98
2022-09-13T10:25:09.660Z,59.88
2022-09-13T10:25:59.655Z,57.96
2022-09-13T10:26:49.641Z,59.75
2022-09-13T10:27:39.632Z,62.04
2022-09-13T10:28:29.627Z,60.64
2022-09-13T10:29:19.641Z,57.83
2022-09-13T10:30:09.607Z,57.53
2022-09-13T10:30:59.641Z,58.23
2022-09-13T10:31:49.590Z,57.01
2022-09-13T10:32:39.580Z,58.40
2022-09-13T10:33:29.560Z,59.59
2022-09-13T10:34:19.551Z,56.61
2022-09-13T10:35:09.590Z,57.31
2022-09-13T10:35:59.532Z,56.51
2022-09-13T10:36:52.643Z,57.21
2022-09-13T10:37:39.513Z,56.51
2022-09-13T10:38:29.502Z,57.51
2022-09-13T10:39:19.508Z,57.11
2022-09-13T10:40:09.593Z,58.57
2022-09-13T10:40:59.541Z,58.87
2022-09-13T10:41:49.528Z,58.87
2022-09-13T10:42:39.463Z,58.47
2022-09-13T10:43:29.452Z,59.66